| time (UTC) | temp F | wind direction | speed knots | gust knots | rain 1hr in | rain 24hr in | rain mn in | humidity % | barometer mb |
| 20260507151507 | 70 | 109 | 2.6 | 7.0 | 0.00 | 0.00 | 0.00 | 38 | 1011.4 |
| 20260507151205 | 71 | 180 | 2.6 | 7.8 | 0.00 | 0.00 | 0.00 | 38 | 1011.1 |
| 20260507150705 | 71 | 123 | 2.6 | 11.3 | 0.00 | 0.00 | 0.00 | 38 | 1011.2 |
| 20260507150006 | 71 | 119 | 2.6 | 11.3 | 0.00 | 0.00 | 0.00 | 38 | 1011.6 |
| 20260507145705 | 72 | 91 | 2.6 | 8.7 | 0.00 | 0.00 | 0.00 | 38 | 1011.3 |
| 20260507145206 | 73 | 233 | 1.7 | 8.7 | 0.00 | 0.00 | 0.00 | 38 | 1011.3 |
| 20260507144705 | 73 | 96 | 2.6 | 6.1 | 0.00 | 0.00 | 0.00 | 39 | 1011.4 |
| 20260507144504 | 72 | 80 | 1.7 | 8.7 | 0.00 | 0.00 | 0.00 | 39 | 1011.7 |
| 20260507144205 | 73 | 296 | 1.7 | 7.0 | 0.00 | 0.00 | 0.00 | 38 | 1011.3 |
| 20260507143705 | 73 | 26 | 1.7 | 7.0 | 0.00 | 0.00 | 0.00 | 38 | 1011.3 |
| 20260507143206 | 73 | 142 | 1.7 | 7.0 | 0.00 | 0.00 | 0.00 | 37 | 1011.3 |
| 20260507143006 | 72 | 121 | 1.7 | 7.0 | 0.00 | 0.00 | 0.00 | 37 | 1011.8 |
| 20260507142705 | 73 | 117 | 2.6 | 7.0 | 0.00 | 0.00 | 0.00 | 37 | 1011.4 |
| 20260507142206 | 73 | 99 | 2.6 | 6.1 | 0.00 | 0.00 | 0.00 | 37 | 1011.4 |
| 20260507141706 | 73 | 135 | 1.7 | 7.8 | 0.00 | 0.00 | 0.00 | 38 | 1011.4 |
| 20260507141502 | 72 | 202 | 1.7 | 5.2 | 0.00 | 0.00 | 0.00 | 38 | 1011.8 |
| 20260507141206 | 73 | 62 | 2.6 | 7.8 | 0.00 | 0.00 | 0.00 | 36 | 1011.5 |
| 20260507140705 | 72 | 115 | 3.5 | 7.8 | 0.00 | 0.00 | 0.00 | 37 | 1011.6 |
| 20260507140206 | 73 | 143 | 3.5 | 7.8 | 0.00 | 0.00 | 0.00 | 36 | 1011.7 |
| 20260507140004 | 72 | 136 | 2.6 | 7.8 | 0.00 | 0.00 | 0.00 | 35 | 1012.0 |
| 20260507135705 | 73 | 140 | 3.5 | 10.4 | 0.00 | 0.00 | 0.00 | 35 | 1011.7 |
| 20260507135206 | 72 | 91 | 3.5 | 10.4 | 0.00 | 0.00 | 0.00 | 35 | 1011.8 |
| 20260507134706 | 73 | 116 | 3.5 | 10.4 | 0.00 | 0.00 | 0.00 | 35 | 1011.8 |
| 20260507134600 | 72 | 76 | 3.5 | 10.4 | 0.00 | 0.00 | 0.00 | 35 | 1012.1 |
| 20260507134205 | 74 | 119 | 2.6 | 5.2 | 0.00 | 0.00 | 0.00 | 35 | 1011.8 |
| 20260507133705 | 74 | 203 | 1.7 | 5.2 | 0.00 | 0.00 | 0.00 | 35 | 1011.8 |
| 20260507133205 | 74 | 317 | 1.7 | 7.8 | 0.00 | 0.00 | 0.00 | 35 | 1011.9 |
| 20260507133100 | 74 | 57 | 1.7 | 4.3 | 0.00 | 0.00 | 0.00 | 35 | 1012.2 |
| 20260507132706 | 74 | 116 | 1.7 | 7.8 | 0.00 | 0.00 | 0.00 | 36 | 1011.9 |
| 20260507132206 | 74 | 54 | 1.7 | 7.8 | 0.00 | 0.00 | 0.00 | 34 | 1012.0 |
| 20260507131705 | 74 | 286 | 2.6 | 7.8 | 0.00 | 0.00 | 0.00 | 34 | 1012.1 |
| 20260507131558 | 74 | 153 | 2.6 | 7.8 | 0.00 | 0.00 | 0.00 | 35 | 1012.4 |
| 20260507131205 | 74 | 169 | 2.6 | 7.8 | 0.00 | 0.00 | 0.00 | 35 | 1012.1 |
| 20260507130705 | 74 | 115 | 1.7 | 7.8 | 0.00 | 0.00 | 0.00 | 34 | 1012.0 |
| 20260507130206 | 74 | 66 | 1.7 | 7.8 | 0.00 | 0.00 | 0.00 | 34 | 1012.1 |
| 20260507130109 | 74 | 103 | 1.7 | 7.8 | 0.00 | 0.00 | 0.00 | 35 | 1012.4 |
| 20260507125705 | 74 | 26 | 1.7 | 7.0 | 0.00 | 0.00 | 0.00 | 34 | 1012.1 |
| 20260507125205 | 74 | 71 | 1.7 | 5.2 | 0.00 | 0.00 | 0.00 | 34 | 1012.1 |
| 20260507124706 | 75 | 117 | 1.7 | 5.2 | 0.00 | 0.00 | 0.00 | 33 | 1012.1 |
| 20260507124603 | 74 | 19 | 0.9 | 5.2 | 0.00 | 0.00 | 0.00 | 32 | 1012.4 |
| 20260507123205 | 74 | 177 | 3.5 | 7.0 | 0.00 | 0.00 | 0.00 | 27 | 1012.2 |
| 20260507123056 | 73 | 107 | 1.7 | 6.1 | 0.00 | 0.00 | 0.00 | 29 | 1012.5 |
| 20260507122705 | 73 | 42 | 3.5 | 7.8 | 0.00 | 0.00 | 0.00 | 30 | 1012.1 |
| 20260507121705 | 73 | 109 | 2.6 | 8.7 | 0.00 | 0.00 | 0.00 | 30 | 1012.3 |
| 20260507121555 | 72 | 104 | 1.7 | 8.7 | 0.00 | 0.00 | 0.00 | 30 | 1012.6 |
| 20260507121206 | 72 | 20 | 4.3 | 8.7 | 0.00 | 0.00 | 0.00 | 30 | 1012.3 |
| 20260507120706 | 73 | 28 | 3.5 | 8.7 | 0.00 | 0.00 | 0.00 | 30 | 1012.4 |
| 20260507120052 | 73 | 115 | 2.6 | 7.8 | 0.00 | 0.00 | 0.00 | 29 | 1012.9 |
| 20260507115722 | 74 | 62 | 2.6 | 7.8 | 0.00 | 0.00 | 0.00 | 29 | 1012.5 |
| 20260507115206 | 74 | 132 | 2.6 | 7.0 | 0.00 | 0.00 | 0.00 | 28 | 1012.5 |
| 20260507114705 | 74 | 107 | 2.6 | 7.8 | 0.00 | 0.00 | 0.00 | 30 | 1012.6 |
| 20260507114557 | 73 | 118 | 1.7 | 7.0 | 0.00 | 0.00 | 0.00 | 31 | 1012.9 |
| 20260507113705 | 73 | 35 | 2.6 | 7.0 | 0.00 | 0.00 | 0.00 | 29 | 1012.7 |
| 20260507113205 | 74 | 78 | 3.5 | 7.8 | 0.00 | 0.00 | 0.00 | 28 | 1012.7 |
| 20260507113050 | 74 | 88 | 3.5 | 6.1 | 0.00 | 0.00 | 0.00 | 28 | 1013.1 |
| 20260507112706 | 74 | 97 | 3.5 | 7.8 | 0.00 | 0.00 | 0.00 | 28 | 1012.7 |
| 20260507112223 | 75 | 70 | 3.5 | 6.1 | 0.00 | 0.00 | 0.00 | 27 | 1012.8 |
| 20260507111705 | 77 | 96 | 2.6 | 6.1 | 0.00 | 0.00 | 0.00 | 26 | 1012.9 |
| 20260507111551 | 77 | 62 | 1.7 | 5.2 | 0.00 | 0.00 | 0.00 | 26 | 1013.2 |
| 20260507111205 | 79 | 97 | 1.7 | 7.8 | 0.00 | 0.00 | 0.00 | 27 | 1013.0 |
| 20260507110705 | 78 | 309 | 1.7 | 7.8 | 0.00 | 0.00 | 0.00 | 28 | 1013.0 |
| 20260507110205 | 77 | 355 | 2.6 | 7.8 | 0.00 | 0.00 | 0.00 | 28 | 1013.1 |
| 20260507110048 | 76 | 341 | 1.7 | 7.8 | 0.00 | 0.00 | 0.00 | 27 | 1013.4 |
| 20260507105705 | 77 | 0 | 2.6 | 7.0 | 0.00 | 0.00 | 0.00 | 27 | 1013.1 |
| 20260507105205 | 79 | 100 | 1.7 | 7.0 | 0.00 | 0.00 | 0.00 | 27 | 1013.0 |
| 20260507104705 | 79 | 58 | 2.6 | 7.0 | 0.00 | 0.00 | 0.00 | 24 | 1013.0 |
| 20260507104546 | 78 | 147 | 1.7 | 6.1 | 0.00 | 0.00 | 0.00 | 24 | 1013.3 |
| 20260507104205 | 80 | 252 | 2.6 | 7.0 | 0.00 | 0.00 | 0.00 | 25 | 1013.1 |
| 20260507103705 | 80 | 319 | 0.9 | 3.5 | 0.00 | 0.00 | 0.00 | 25 | 1013.1 |
| 20260507103206 | 80 | 196 | 1.7 | 3.5 | 0.00 | 0.00 | 0.00 | 22 | 1013.1 |
| 20260507103045 | 80 | 261 | 0.9 | 3.5 | 0.00 | 0.00 | 0.00 | 21 | 1013.4 |
| 20260507102705 | 81 | 292 | 1.7 | 7.8 | 0.00 | 0.00 | 0.00 | 23 | 1013.1 |
| 20260507102205 | 80 | 350 | 1.7 | 8.7 | 0.00 | 0.00 | 0.00 | 23 | 1013.1 |
| 20260507101705 | 80 | 334 | 3.5 | 8.7 | 0.00 | 0.00 | 0.00 | 25 | 1013.1 |
| 20260507101548 | 80 | 296 | 1.7 | 8.7 | 0.00 | 0.00 | 0.00 | 24 | 1013.5 |
| 20260507101205 | 80 | 333 | 3.5 | 7.8 | 0.00 | 0.00 | 0.00 | 26 | 1013.2 |
| 20260507100705 | 79 | 300 | 2.6 | 7.0 | 0.00 | 0.00 | 0.00 | 26 | 1013.3 |
| 20260507100205 | 79 | 281 | 3.5 | 7.0 | 0.00 | 0.00 | 0.00 | 26 | 1013.3 |
| 20260507100042 | 78 | 322 | 0.9 | 7.8 | 0.00 | 0.00 | 0.00 | 26 | 1013.6 |
| 20260507095705 | 78 | 309 | 2.6 | 8.7 | 0.00 | 0.00 | 0.00 | 27 | 1013.4 |
| 20260507095206 | 78 | 259 | 3.5 | 8.7 | 0.00 | 0.00 | 0.00 | 28 | 1013.4 |
| 20260507094705 | 78 | 235 | 4.3 | 8.7 | 0.00 | 0.00 | 0.00 | 27 | 1013.4 |
| 20260507094636 | 77 | 13 | 2.6 | 8.7 | 0.00 | 0.00 | 0.00 | 27 | 1013.7 |
| 20260507094206 | 77 | 249 | 3.5 | 7.8 | 0.00 | 0.00 | 0.00 | 29 | 1013.4 |
| 20260507093705 | 77 | 317 | 2.6 | 7.0 | 0.00 | 0.00 | 0.00 | 29 | 1013.3 |
| 20260507093205 | 76 | 39 | 2.6 | 8.7 | 0.00 | 0.00 | 0.00 | 29 | 1013.4 |
| 20260507093035 | 75 | 22 | 1.7 | 7.0 | 0.00 | 0.00 | 0.00 | 29 | 1013.8 |
| 20260507092705 | 76 | 50 | 3.5 | 8.7 | 0.00 | 0.00 | 0.00 | 30 | 1013.4 |
| 20260507092206 | 76 | 176 | 3.5 | 8.7 | 0.00 | 0.00 | 0.00 | 30 | 1013.4 |
| 20260507091705 | 76 | 331 | 2.6 | 9.6 | 0.00 | 0.00 | 0.00 | 31 | 1013.4 |
| 20260507091530 | 75 | 311 | 0.9 | 7.0 | 0.00 | 0.00 | 0.00 | 29 | 1013.8 |
| 20260507091206 | 76 | 266 | 3.5 | 9.6 | 0.00 | 0.00 | 0.00 | 31 | 1013.5 |
| 20260507090706 | 75 | 259 | 4.3 | 9.6 | 0.00 | 0.00 | 0.00 | 31 | 1013.4 |
| 20260507090032 | 74 | 250 | 5.2 | 8.7 | 0.00 | 0.00 | 0.00 | 33 | 1013.8 |
| 20260507085706 | 74 | 306 | 5.2 | 9.6 | 0.00 | 0.00 | 0.00 | 33 | 1013.5 |
| 20260507085206 | 74 | 277 | 4.3 | 9.6 | 0.00 | 0.00 | 0.00 | 34 | 1013.5 |
| 20260507084705 | 73 | 263 | 5.2 | 9.6 | 0.00 | 0.00 | 0.00 | 36 | 1013.6 |
| 20260507084525 | 72 | 253 | 3.5 | 9.6 | 0.00 | 0.00 | 0.00 | 36 | 1013.9 |
| 20260507084205 | 73 | 272 | 4.3 | 9.6 | 0.00 | 0.00 | 0.00 | 37 | 1013.5 |
| 20260507083017 | 69 | 275 | 6.1 | 9.6 | 0.00 | 0.00 | 0.00 | 39 | 1014.0 |
| 20260507082705 | 70 | 237 | 4.3 | 11.3 | 0.00 | 0.00 | 0.00 | 41 | 1013.6 |
| 20260507082207 | 69 | 283 | 4.3 | 12.2 | 0.00 | 0.00 | 0.00 | 41 | 1013.6 |
| 20260507081705 | 68 | 272 | 6.1 | 12.2 | 0.00 | 0.00 | 0.00 | 43 | 1013.6 |
| 20260507081521 | 67 | 259 | 5.2 | 12.2 | 0.00 | 0.00 | 0.00 | 43 | 1014.0 |
| 20260507081205 | 68 | 271 | 7.0 | 12.2 | 0.00 | 0.00 | 0.00 | 43 | 1013.6 |
| 20260507080205 | 68 | 284 | 6.1 | 10.4 | 0.00 | 0.00 | 0.00 | 43 | 1013.5 |
| 20260507080008 | 67 | 244 | 5.2 | 10.4 | 0.00 | 0.00 | 0.00 | 43 | 1013.9 |
| 20260507075706 | 68 | 274 | 5.2 | 10.4 | 0.00 | 0.00 | 0.00 | 43 | 1013.5 |
| 20260507075205 | 68 | 271 | 6.1 | 10.4 | 0.00 | 0.00 | 0.00 | 45 | 1013.6 |
| 20260507074505 | 66 | 275 | 7.0 | 10.4 | 0.00 | 0.00 | 0.00 | 47 | 1013.9 |
| 20260507074205 | 66 | 288 | 5.2 | 10.4 | 0.00 | 0.00 | 0.00 | 48 | 1013.5 |
| 20260507073705 | 66 | 281 | 4.3 | 10.4 | 0.00 | 0.00 | 0.00 | 49 | 1013.6 |
| 20260507073205 | 65 | 255 | 4.3 | 12.2 | 0.00 | 0.00 | 0.00 | 51 | 1013.5 |
| 20260507073104 | 64 | 298 | 3.5 | 9.6 | 0.00 | 0.00 | 0.00 | 51 | 1013.8 |
| 20260507072206 | 62 | 279 | 6.1 | 14.8 | 0.00 | 0.00 | 0.00 | 54 | 1013.5 |
| 20260507071705 | 62 | 252 | 7.0 | 14.8 | 0.00 | 0.00 | 0.00 | 54 | 1013.4 |
| 20260507071557 | 61 | 313 | 5.2 | 14.8 | 0.00 | 0.00 | 0.00 | 55 | 1013.7 |
| 20260507071205 | 61 | 253 | 7.8 | 13.0 | 0.00 | 0.00 | 0.00 | 55 | 1013.4 |
| 20260507070205 | 60 | 342 | 7.8 | 15.6 | 0.00 | 0.00 | 0.00 | 57 | 1013.4 |
| 20260507070058 | 59 | 313 | 7.0 | 13.0 | 0.00 | 0.00 | 0.00 | 57 | 1013.8 |
| 20260507065704 | 60 | 265 | 7.8 | 15.6 | 0.00 | 0.00 | 0.00 | 58 | 1013.5 |
| 20260507065207 | 59 | 248 | 7.8 | 12.2 | 0.00 | 0.00 | 0.00 | 58 | 1013.4 |
| 20260507064705 | 59 | 276 | 7.0 | 12.2 | 0.00 | 0.00 | 0.00 | 59 | 1013.5 |
| 20260507064548 | 58 | 285 | 6.1 | 13.0 | 0.00 | 0.00 | 0.00 | 59 | 1013.8 |
| 20260507063048 | 56 | 286 | 8.7 | 12.2 | 0.00 | 0.00 | 0.00 | 61 | 1013.9 |
| 20260507062705 | 57 | 305 | 7.8 | 12.2 | 0.00 | 0.00 | 0.00 | 62 | 1013.5 |
| 20260507061705 | 56 | 270 | 6.1 | 11.3 | 0.00 | 0.00 | 0.00 | 64 | 1013.4 |
| 20260507061541 | 55 | 292 | 6.1 | 11.3 | 0.00 | 0.00 | 0.00 | 65 | 1013.8 |
| 20260507061205 | 55 | 290 | 6.1 | 10.4 | 0.00 | 0.00 | 0.00 | 65 | 1013.5 |
| 20260507060049 | 54 | 261 | 5.2 | 9.6 | 0.00 | 0.00 | 0.00 | 67 | 1013.9 |
| 20260507055705 | 54 | 248 | 4.3 | 8.7 | 0.00 | 0.00 | 0.00 | 67 | 1013.6 |
| 20260507054705 | 53 | 283 | 5.2 | 8.7 | 0.00 | 0.00 | 0.00 | 67 | 1013.7 |
| 20260507054538 | 52 | 269 | 5.2 | 8.7 | 0.00 | 0.00 | 0.00 | 68 | 1014.0 |
| 20260507054206 | 52 | 254 | 5.2 | 7.8 | 0.00 | 0.00 | 0.00 | 68 | 1013.7 |
| 20260507053705 | 52 | 289 | 4.3 | 7.8 | 0.00 | 0.00 | 0.00 | 68 | 1013.7 |
| 20260507053026 | 51 | 263 | 4.3 | 7.8 | 0.00 | 0.00 | 0.00 | 68 | 1014.0 |
| 20260507052705 | 51 | 242 | 4.3 | 8.7 | 0.00 | 0.00 | 0.00 | 68 | 1013.6 |
| 20260507052205 | 51 | 240 | 5.2 | 8.7 | 0.00 | 0.00 | 0.00 | 68 | 1013.6 |
| 20260507051705 | 51 | 287 | 5.2 | 8.7 | 0.00 | 0.00 | 0.00 | 68 | 1013.6 |
| 20260507051522 | 51 | 280 | 5.2 | 8.7 | 0.00 | 0.00 | 0.00 | 68 | 1013.9 |
| 20260507051205 | 51 | 275 | 5.2 | 7.8 | 0.00 | 0.00 | 0.00 | 68 | 1013.5 |
| 20260507050705 | 51 | 269 | 5.2 | 8.7 | 0.00 | 0.00 | 0.00 | 68 | 1013.4 |
| 20260507050205 | 51 | 265 | 4.3 | 8.7 | 0.00 | 0.00 | 0.00 | 68 | 1013.4 |
| 20260507050019 | 50 | 246 | 4.3 | 8.7 | 0.00 | 0.00 | 0.00 | 68 | 1013.7 |
| 20260507045705 | 51 | 282 | 4.3 | 8.7 | 0.00 | 0.00 | 0.00 | 68 | 1013.3 |
| 20260507044705 | 51 | 286 | 5.2 | 8.7 | 0.00 | 0.00 | 0.00 | 68 | 1013.3 |
| 20260507044535 | 50 | 298 | 4.3 | 8.7 | 0.00 | 0.00 | 0.00 | 67 | 1013.6 |
| 20260507044205 | 51 | 273 | 4.3 | 7.8 | 0.00 | 0.00 | 0.00 | 67 | 1013.2 |
| 20260507043705 | 51 | 272 | 4.3 | 7.0 | 0.00 | 0.00 | 0.00 | 67 | 1013.2 |
| 20260507043206 | 51 | 290 | 4.3 | 7.0 | 0.00 | 0.00 | 0.00 | 67 | 1013.3 |
| 20260507043014 | 50 | 285 | 3.5 | 7.0 | 0.00 | 0.00 | 0.00 | 67 | 1013.6 |
| 20260507042705 | 51 | 274 | 3.5 | 7.0 | 0.00 | 0.00 | 0.00 | 67 | 1013.3 |
| 20260507042206 | 51 | 254 | 3.5 | 7.0 | 0.00 | 0.00 | 0.00 | 67 | 1013.3 |
| 20260507041705 | 51 | 272 | 4.3 | 7.8 | 0.00 | 0.00 | 0.00 | 67 | 1013.3 |
| 20260507041512 | 50 | 309 | 2.6 | 7.0 | 0.00 | 0.00 | 0.00 | 67 | 1013.6 |
| 20260507041205 | 51 | 287 | 5.2 | 7.8 | 0.00 | 0.00 | 0.00 | 67 | 1013.2 |
| 20260507040705 | 51 | 258 | 5.2 | 9.6 | 0.00 | 0.00 | 0.00 | 67 | 1013.2 |
| 20260507040206 | 51 | 264 | 5.2 | 9.6 | 0.00 | 0.00 | 0.00 | 67 | 1013.1 |
| 20260507040010 | 51 | 286 | 4.3 | 9.6 | 0.00 | 0.00 | 0.00 | 67 | 1013.4 |
| 20260507035705 | 51 | 237 | 5.2 | 9.6 | 0.00 | 0.00 | 0.00 | 67 | 1013.2 |
| 20260507035206 | 51 | 252 | 5.2 | 8.7 | 0.00 | 0.00 | 0.00 | 67 | 1013.1 |
| 20260507034507 | 51 | 285 | 5.2 | 8.7 | 0.00 | 0.00 | 0.00 | 67 | 1013.4 |
| 20260507034205 | 51 | 277 | 4.3 | 8.7 | 0.00 | 0.00 | 0.00 | 67 | 1013.1 |
| 20260507033705 | 52 | 251 | 4.3 | 9.6 | 0.00 | 0.00 | 0.00 | 67 | 1013.0 |
| 20260507033206 | 52 | 262 | 4.3 | 12.2 | 0.00 | 0.00 | 0.00 | 67 | 1013.0 |
| 20260507033006 | 51 | 259 | 4.3 | 9.6 | 0.00 | 0.00 | 0.00 | 67 | 1013.3 |
| 20260507032705 | 52 | 259 | 4.3 | 12.2 | 0.00 | 0.00 | 0.00 | 67 | 1013.0 |
| 20260507032205 | 52 | 241 | 5.2 | 12.2 | 0.00 | 0.00 | 0.00 | 67 | 1013.0 |
| 20260507031706 | 52 | 302 | 6.1 | 9.6 | 0.00 | 0.00 | 0.00 | 67 | 1012.9 |
| 20260507031504 | 51 | 287 | 5.2 | 9.6 | 0.00 | 0.00 | 0.00 | 67 | 1013.2 |
| 20260507031206 | 52 | 286 | 6.1 | 9.6 | 0.00 | 0.00 | 0.00 | 67 | 1012.9 |
| 20260507030705 | 52 | 295 | 7.0 | 10.4 | 0.00 | 0.00 | 0.00 | 67 | 1012.9 |
| 20260507030206 | 52 | 273 | 6.1 | 10.4 | 0.00 | 0.00 | 0.00 | 66 | 1012.9 |
| 20260507030002 | 52 | 293 | 6.1 | 10.4 | 0.00 | 0.00 | 0.00 | 66 | 1013.2 |
| 20260507025705 | 52 | 269 | 7.0 | 10.4 | 0.00 | 0.00 | 0.00 | 66 | 1012.9 |
| 20260507025206 | 52 | 312 | 7.0 | 10.4 | 0.00 | 0.00 | 0.00 | 66 | 1012.9 |
| 20260507024705 | 52 | 251 | 7.0 | 10.4 | 0.00 | 0.00 | 0.00 | 66 | 1013.0 |
| 20260507024600 | 52 | 286 | 6.1 | 10.4 | 0.00 | 0.00 | 0.00 | 66 | 1013.3 |
| 20260507024205 | 52 | 268 | 5.2 | 8.7 | 0.00 | 0.00 | 0.00 | 66 | 1013.0 |
| 20260507023705 | 52 | 257 | 4.3 | 8.7 | 0.00 | 0.00 | 0.00 | 66 | 1013.1 |
| 20260507023205 | 53 | 244 | 4.3 | 8.7 | 0.00 | 0.00 | 0.00 | 66 | 1013.1 |
| 20260507023057 | 52 | 266 | 3.5 | 8.7 | 0.00 | 0.00 | 0.00 | 66 | 1013.4 |
| 20260507022705 | 53 | 280 | 4.3 | 7.8 | 0.00 | 0.00 | 0.00 | 66 | 1013.1 |
| 20260507022206 | 53 | 269 | 4.3 | 7.8 | 0.00 | 0.00 | 0.00 | 66 | 1013.1 |
| 20260507021705 | 52 | 256 | 4.3 | 7.0 | 0.00 | 0.00 | 0.00 | 66 | 1013.1 |
| 20260507021557 | 52 | 257 | 2.6 | 7.0 | 0.00 | 0.00 | 0.00 | 66 | 1013.4 |
| 20260507021225 | 52 | 248 | 5.2 | 7.8 | 0.00 | 0.00 | 0.00 | 66 | 1013.1 |
| 20260507020705 | 52 | 281 | 4.3 | 7.8 | 0.00 | 0.00 | 0.00 | 66 | 1013.1 |
| 20260507020053 | 52 | 275 | 3.5 | 7.8 | 0.00 | 0.00 | 0.00 | 66 | 1013.6 |
| 20260507015205 | 53 | 287 | 3.5 | 5.2 | 0.00 | 0.00 | 0.00 | 66 | 1013.2 |
| 20260507014705 | 53 | 273 | 2.6 | 5.2 | 0.00 | 0.00 | 0.00 | 66 | 1013.3 |
| 20260507014554 | 52 | 273 | 1.7 | 3.5 | 0.00 | 0.00 | 0.00 | 66 | 1013.6 |
| 20260507014233 | 53 | 250 | 1.7 | 5.2 | 0.00 | 0.00 | 0.00 | 66 | 1013.2 |
| 20260507013205 | 53 | 238 | 1.7 | 3.5 | 0.00 | 0.00 | 0.00 | 66 | 1013.4 |
| 20260507013058 | 53 | 253 | 1.7 | 3.5 | 0.00 | 0.00 | 0.00 | 66 | 1013.7 |
| 20260507012730 | 53 | 261 | 1.7 | 5.2 | 0.00 | 0.00 | 0.00 | 66 | 1013.4 |
| 20260507012206 | 53 | 257 | 2.6 | 5.2 | 0.00 | 0.00 | 0.00 | 66 | 1013.4 |
| 20260507011705 | 53 | 263 | 2.6 | 6.1 | 0.00 | 0.00 | 0.00 | 66 | 1013.4 |
| 20260507011547 | 53 | 270 | 3.5 | 5.2 | 0.00 | 0.00 | 0.00 | 66 | 1013.8 |
| 20260507011205 | 54 | 251 | 3.5 | 6.1 | 0.00 | 0.00 | 0.00 | 66 | 1013.4 |
| 20260507010205 | 54 | 263 | 3.5 | 6.1 | 0.00 | 0.00 | 0.00 | 66 | 1013.5 |
| 20260507010046 | 53 | 271 | 3.5 | 6.1 | 0.00 | 0.00 | 0.00 | 66 | 1013.9 |
| 20260507005705 | 54 | 254 | 3.5 | 6.1 | 0.00 | 0.00 | 0.00 | 66 | 1013.5 |
| 20260507005206 | 54 | 268 | 3.5 | 5.2 | 0.00 | 0.00 | 0.00 | 66 | 1013.6 |
| 20260507004705 | 54 | 258 | 2.6 | 5.2 | 0.00 | 0.00 | 0.00 | 66 | 1013.6 |
| 20260507004545 | 53 | 254 | 2.6 | 5.2 | 0.00 | 0.00 | 0.00 | 66 | 1014.0 |
| 20260507004205 | 54 | 246 | 2.6 | 3.5 | 0.00 | 0.00 | 0.00 | 66 | 1013.6 |
| 20260507003205 | 54 | 251 | 1.7 | 3.5 | 0.00 | 0.00 | 0.00 | 65 | 1013.7 |
| 20260507003045 | 54 | 225 | 1.7 | 3.5 | 0.00 | 0.00 | 0.00 | 66 | 1014.1 |
| 20260507002705 | 55 | 252 | 1.7 | 2.6 | 0.00 | 0.00 | 0.00 | 65 | 1013.7 |
| 20260507002206 | 55 | 260 | 1.7 | 2.6 | 0.00 | 0.00 | 0.00 | 66 | 1013.7 |
| 20260507001705 | 55 | 239 | 0.9 | 1.7 | 0.00 | 0.00 | 0.00 | 66 | 1013.7 |
| 20260507001543 | 54 | 226 | 0.9 | 1.7 | 0.00 | 0.00 | 0.00 | 66 | 1014.0 |
| 20260507001224 | 55 | 226 | 0.0 | 2.6 | 0.00 | 0.00 | 0.00 | 66 | 1013.7 |
| 20260507000705 | 55 | 225 | 0.0 | 2.6 | 0.00 | 0.00 | 0.00 | 66 | 1013.8 |
| 20260507000205 | 55 | 225 | 0.9 | 2.6 | 0.00 | 0.00 | 0.00 | 66 | 1013.8 |
| 20260507000043 | 54 | 225 | 0.0 | 2.6 | 0.00 | 0.00 | 0.00 | 66 | 1014.2 |
| 20260506235206 | 55 | 226 | 0.9 | 4.3 | 0.00 | 0.00 | 0.00 | 65 | 1013.7 |
| 20260506234705 | 55 | 226 | 0.9 | 2.6 | 0.00 | 0.00 | 0.00 | 65 | 1013.8 |
| 20260506234541 | 55 | 225 | 0.9 | 4.3 | 0.00 | 0.00 | 0.00 | 65 | 1014.1 |
| 20260506234205 | 55 | 227 | 0.9 | 5.2 | 0.00 | 0.00 | 0.00 | 65 | 1013.8 |
| 20260506233727 | 55 | 250 | 0.9 | 5.2 | 0.00 | 0.00 | 0.00 | 65 | 1013.8 |
| 20260506233205 | 56 | 251 | 1.7 | 5.2 | 0.00 | 0.00 | 0.00 | 65 | 1013.7 |
| 20260506233037 | 55 | 228 | 0.9 | 5.2 | 0.00 | 0.00 | 0.00 | 65 | 1014.1 |
| 20260506232707 | 56 | 269 | 1.7 | 7.0 | 0.00 | 0.00 | 0.00 | 65 | 1013.6 |
| 20260506232205 | 56 | 236 | 2.6 | 7.0 | 0.00 | 0.00 | 0.00 | 65 | 1013.6 |
| 20260506231706 | 56 | 277 | 2.6 | 7.0 | 0.00 | 0.00 | 0.00 | 65 | 1013.7 |
| 20260506231538 | 55 | 276 | 1.7 | 7.0 | 0.00 | 0.00 | 0.00 | 65 | 1014.0 |
| 20260506231205 | 56 | 263 | 4.3 | 7.0 | 0.00 | 0.00 | 0.00 | 65 | 1013.7 |
| 20260506230206 | 56 | 263 | 3.5 | 7.0 | 0.00 | 0.00 | 0.00 | 65 | 1013.7 |
| 20260506230034 | 55 | 261 | 4.3 | 7.0 | 0.00 | 0.00 | 0.00 | 65 | 1014.0 |
| 20260506225705 | 56 | 286 | 3.5 | 7.0 | 0.00 | 0.00 | 0.00 | 64 | 1013.6 |
| 20260506224705 | 56 | 269 | 2.6 | 5.2 | 0.00 | 0.00 | 0.00 | 64 | 1013.6 |
| 20260506224532 | 55 | 273 | 2.6 | 6.1 | 0.00 | 0.00 | 0.00 | 64 | 1013.9 |
| 20260506224206 | 56 | 305 | 1.7 | 5.2 | 0.00 | 0.00 | 0.00 | 64 | 1013.6 |
| 20260506223706 | 56 | 288 | 0.9 | 5.2 | 0.00 | 0.00 | 0.00 | 64 | 1013.6 |
| 20260506223205 | 56 | 298 | 0.9 | 4.3 | 0.00 | 0.00 | 0.00 | 64 | 1013.6 |
| 20260506223031 | 56 | 254 | 1.7 | 4.3 | 0.00 | 0.00 | 0.00 | 64 | 1013.9 |
| 20260506222706 | 56 | 210 | 0.9 | 5.2 | 0.00 | 0.00 | 0.00 | 64 | 1013.5 |
| 20260506222206 | 56 | 244 | 1.7 | 5.2 | 0.00 | 0.00 | 0.00 | 64 | 1013.5 |
| 20260506221705 | 56 | 221 | 1.7 | 5.2 | 0.00 | 0.00 | 0.00 | 64 | 1013.5 |
| 20260506221530 | 56 | 270 | 1.7 | 5.2 | 0.00 | 0.00 | 0.00 | 64 | 1013.8 |
| 20260506220205 | 57 | 226 | 0.9 | 3.5 | 0.00 | 0.00 | 0.00 | 64 | 1013.4 |
| 20260506220031 | 56 | 248 | 0.9 | 3.5 | 0.00 | 0.00 | 0.00 | 64 | 1013.7 |
| 20260506215206 | 57 | 225 | 1.7 | 6.1 | 0.00 | 0.00 | 0.00 | 64 | 1013.4 |
| 20260506214527 | 56 | 265 | 0.9 | 6.1 | 0.00 | 0.00 | 0.00 | 64 | 1013.8 |
| 20260506214206 | 57 | 250 | 0.9 | 3.5 | 0.00 | 0.00 | 0.00 | 64 | 1013.4 |
| 20260506213705 | 57 | 260 | 0.9 | 3.5 | 0.00 | 0.00 | 0.00 | 64 | 1013.4 |
| 20260506213026 | 56 | 258 | 0.9 | 3.5 | 0.00 | 0.00 | 0.00 | 64 | 1013.7 |
| 20260506212705 | 57 | 255 | 1.7 | 5.2 | 0.00 | 0.00 | 0.00 | 64 | 1013.4 |
| 20260506212206 | 57 | 275 | 1.7 | 5.2 | 0.00 | 0.00 | 0.00 | 64 | 1013.4 |
| 20260506211704 | 57 | 272 | 2.6 | 5.2 | 0.00 | 0.00 | 0.00 | 64 | 1013.4 |
| 20260506211527 | 56 | 264 | 1.7 | 5.2 | 0.00 | 0.00 | 0.00 | 64 | 1013.8 |
| 20260506211206 | 57 | 259 | 2.6 | 5.2 | 0.00 | 0.00 | 0.00 | 64 | 1013.4 |
| 20260506210706 | 57 | 263 | 2.6 | 3.5 | 0.00 | 0.00 | 0.00 | 63 | 1013.4 |
| 20260506210206 | 57 | 296 | 2.6 | 3.5 | 0.00 | 0.00 | 0.00 | 63 | 1013.4 |
| 20260506210025 | 57 | 270 | 1.7 | 3.5 | 0.00 | 0.00 | 0.00 | 63 | 1013.7 |
| 20260506204524 | 57 | 248 | 2.6 | 6.1 | 0.00 | 0.01 | 0.00 | 63 | 1013.7 |
| 20260506203706 | 58 | 277 | 3.5 | 8.7 | 0.00 | 0.00 | 0.00 | 63 | 1013.1 |
| 20260506203027 | 57 | 304 | 2.6 | 8.7 | 0.00 | 0.01 | 0.00 | 62 | 1013.4 |
| 20260506202706 | 58 | 267 | 4.3 | 8.7 | 0.00 | 0.00 | 0.00 | 62 | 1013.0 |
| 20260506202206 | 58 | 267 | 3.5 | 6.1 | 0.00 | 0.00 | 0.00 | 62 | 1013.0 |
| 20260506201706 | 58 | 281 | 2.6 | 7.8 | 0.00 | 0.00 | 0.00 | 61 | 1012.9 |
| 20260506201521 | 57 | 301 | 2.6 | 6.1 | 0.00 | 0.01 | 0.00 | 61 | 1013.2 |
| 20260506201206 | 58 | 257 | 3.5 | 7.8 | 0.00 | 0.00 | 0.00 | 61 | 1012.9 |
| 20260506200705 | 58 | 250 | 3.5 | 7.0 | 0.00 | 0.00 | 0.00 | 61 | 1012.9 |
| 20260506200205 | 58 | 265 | 3.5 | 7.8 | 0.00 | 0.01 | 0.00 | 60 | 1012.9 |
| 20260506200019 | 58 | 284 | 2.6 | 6.1 | 0.00 | 0.01 | 0.00 | 60 | 1013.2 |
| 20260506195705 | 59 | 279 | 3.5 | 7.8 | 0.00 | 0.01 | 0.00 | 60 | 1012.8 |
| 20260506195206 | 59 | 281 | 3.5 | 7.8 | 0.00 | 0.01 | 0.00 | 60 | 1012.7 |
| 20260506194733 | 59 | 261 | 3.5 | 7.8 | 0.00 | 0.01 | 0.00 | 60 | 1012.6 |
| 20260506194517 | 59 | 255 | 2.6 | 7.0 | 0.00 | 0.02 | 0.00 | 60 | 1012.9 |
| 20260506194206 | 60 | 252 | 3.5 | 7.8 | 0.00 | 0.01 | 0.00 | 59 | 1012.5 |
| 20260506193706 | 60 | 251 | 3.5 | 7.8 | 0.00 | 0.01 | 0.00 | 59 | 1012.4 |
| 20260506193205 | 60 | 269 | 4.3 | 8.7 | 0.00 | 0.01 | 0.00 | 58 | 1012.4 |
| 20260506193016 | 60 | 213 | 3.5 | 7.8 | 0.00 | 0.02 | 0.00 | 58 | 1012.8 |
| 20260506191706 | 62 | 254 | 4.3 | 11.3 | 0.00 | 0.01 | 0.00 | 54 | 1012.4 |
| 20260506191515 | 62 | 269 | 2.6 | 9.6 | 0.00 | 0.02 | 0.00 | 54 | 1012.7 |
| 20260506191206 | 63 | 225 | 4.3 | 14.8 | 0.00 | 0.02 | 0.00 | 52 | 1012.3 |
| 20260506190705 | 64 | 285 | 6.1 | 14.8 | 0.00 | 0.02 | 0.00 | 50 | 1012.3 |
| 20260506190012 | 64 | 244 | 7.8 | 14.8 | 0.00 | 0.02 | 0.00 | 46 | 1012.5 |
| 20260506185705 | 65 | 288 | 7.0 | 12.2 | 0.00 | 0.02 | 0.00 | 46 | 1012.1 |
| 20260506185206 | 66 | 273 | 6.1 | 9.6 | 0.00 | 0.02 | 0.00 | 45 | 1011.9 |
| 20260506184705 | 66 | 289 | 6.1 | 9.6 | 0.00 | 0.02 | 0.00 | 42 | 1011.7 |
| 20260506184509 | 65 | 275 | 6.1 | 9.6 | 0.00 | 0.02 | 0.00 | 41 | 1011.9 |
| 20260506184205 | 66 | 262 | 5.2 | 10.4 | 0.00 | 0.02 | 0.00 | 41 | 1011.5 |
| 20260506183705 | 66 | 250 | 5.2 | 10.4 | 0.00 | 0.02 | 0.00 | 40 | 1011.4 |
| 20260506183205 | 67 | 255 | 5.2 | 10.4 | 0.00 | 0.02 | 0.00 | 40 | 1011.3 |
| 20260506183011 | 66 | 294 | 5.2 | 10.4 | 0.00 | 0.02 | 0.00 | 40 | 1011.6 |
| 20260506182705 | 67 | 273 | 4.3 | 9.6 | 0.00 | 0.02 | 0.00 | 40 | 1011.3 |
| 20260506182206 | 67 | 279 | 4.3 | 11.3 | 0.00 | 0.02 | 0.00 | 41 | 1011.2 |
| 20260506181705 | 67 | 281 | 5.2 | 11.3 | 0.00 | 0.02 | 0.00 | 40 | 1011.2 |
| 20260506181508 | 66 | 244 | 3.5 | 11.3 | 0.00 | 0.02 | 0.00 | 40 | 1011.5 |
| 20260506181205 | 67 | 320 | 5.2 | 10.4 | 0.00 | 0.02 | 0.00 | 40 | 1011.1 |
| 20260506180205 | 67 | 289 | 5.2 | 9.6 | 0.00 | 0.02 | 0.00 | 39 | 1010.8 |
| 20260506180008 | 67 | 329 | 3.5 | 10.4 | 0.00 | 0.02 | 0.00 | 39 | 1011.1 |
| 20260506175705 | 68 | 259 | 5.2 | 11.3 | 0.00 | 0.02 | 0.00 | 38 | 1010.6 |
| 20260506175206 | 68 | 277 | 5.2 | 11.3 | 0.00 | 0.02 | 0.00 | 38 | 1010.6 |
| 20260506174705 | 68 | 311 | 4.3 | 10.4 | 0.00 | 0.02 | 0.00 | 38 | 1010.6 |
| 20260506174507 | 67 | 342 | 6.1 | 10.4 | 0.00 | 0.02 | 0.00 | 38 | 1010.9 |
| 20260506174205 | 68 | 345 | 1.7 | 5.2 | 0.00 | 0.02 | 0.00 | 39 | 1010.5 |
| 20260506173706 | 68 | 284 | 0.9 | 7.8 | 0.00 | 0.02 | 0.00 | 39 | 1010.5 |
| 20260506173205 | 68 | 219 | 1.7 | 7.8 | 0.00 | 0.02 | 0.00 | 39 | 1010.5 |
| 20260506173008 | 68 | 301 | 0.0 | 7.8 | 0.00 | 0.02 | 0.00 | 40 | 1010.7 |
| 20260506172206 | 69 | 147 | 0.9 | 4.3 | 0.00 | 0.02 | 0.00 | 42 | 1010.3 |
| 20260506171705 | 70 | 30 | 0.9 | 7.8 | 0.00 | 0.02 | 0.00 | 43 | 1010.2 |
| 20260506171512 | 69 | 30 | 0.0 | 3.5 | 0.00 | 0.02 | 0.00 | 43 | 1010.5 |
| 20260506171206 | 70 | 338 | 1.7 | 7.8 | 0.00 | 0.02 | 0.00 | 42 | 1010.1 |
| 20260506170705 | 71 | 57 | 2.6 | 9.6 | 0.00 | 0.02 | 0.00 | 40 | 1010.1 |
| 20260506170205 | 71 | 47 | 3.5 | 9.6 | 0.00 | 0.02 | 0.00 | 32 | 1010.0 |
| 20260506170007 | 71 | 338 | 1.7 | 9.6 | 0.00 | 0.02 | 0.00 | 32 | 1010.4 |
| 20260506165706 | 72 | 5 | 4.3 | 9.6 | 0.00 | 0.02 | 0.00 | 31 | 1010.0 |
| 20260506165206 | 72 | 300 | 3.5 | 9.6 | 0.00 | 0.02 | 0.00 | 32 | 1010.0 |
| 20260506164706 | 71 | 314 | 4.3 | 10.4 | 0.00 | 0.02 | 0.00 | 33 | 1010.0 |
| 20260506164505 | 71 | 218 | 4.3 | 9.6 | 0.00 | 0.02 | 0.00 | 33 | 1010.3 |
| 20260506164205 | 71 | 285 | 5.2 | 10.4 | 0.00 | 0.02 | 0.00 | 33 | 1009.9 |
| 20260506163705 | 71 | 277 | 5.2 | 10.4 | 0.00 | 0.02 | 0.00 | 32 | 1009.9 |
| 20260506163205 | 71 | 311 | 5.2 | 10.4 | 0.00 | 0.02 | 0.00 | 32 | 1009.9 |
| 20260506163008 | 70 | 313 | 4.3 | 8.7 | 0.00 | 0.02 | 0.00 | 33 | 1010.2 |
| 20260506162705 | 71 | 355 | 5.2 | 10.4 | 0.00 | 0.02 | 0.00 | 33 | 1009.9 |
| 20260506162214 | 70 | 253 | 3.5 | 10.4 | 0.00 | 0.02 | 0.00 | 33 | 1009.8 |
| 20260506161708 | 70 | 350 | 2.6 | 10.4 | 0.00 | 0.02 | 0.00 | 37 | 1009.8 |
| 20260506161505 | 70 | 72 | 0.0 | 10.4 | 0.00 | 0.02 | 0.00 | 38 | 1010.1 |
| 20260506161229 | 70 | 350 | 2.6 | 7.0 | 0.00 | 0.02 | 0.00 | 39 | 1009.8 |
| 20260506160705 | 71 | 60 | 1.7 | 7.0 | 0.00 | 0.02 | 0.00 | 39 | 1009.7 |
| 20260506160233 | 71 | 90 | 1.7 | 7.0 | 0.00 | 0.02 | 0.00 | 38 | 1009.7 |
| 20260506160006 | 71 | 200 | 0.9 | 7.0 | 0.00 | 0.02 | 0.00 | 38 | 1010.0 |
| 20260506155705 | 73 | 126 | 0.9 | 2.6 | 0.00 | 0.02 | 0.00 | 37 | 1009.7 |
| 20260506155206 | 74 | 191 | 0.9 | 8.7 | 0.00 | 0.02 | 0.00 | 35 | 1009.7 |
| 20260506154504 | 74 | 207 | 0.0 | 8.7 | 0.00 | 0.04 | 0.00 | 27 | 1009.9 |
| 20260506154205 | 75 | 319 | 4.3 | 11.3 | 0.00 | 0.03 | 0.00 | 29 | 1009.7 |
| 20260506153705 | 75 | 273 | 5.2 | 9.6 | 0.00 | 0.03 | 0.00 | 27 | 1009.7 |
| 20260506153205 | 75 | 228 | 4.3 | 10.4 | 0.00 | 0.04 | 0.00 | 28 | 1009.7 |
| 20260506153003 | 74 | 267 | 3.5 | 7.8 | 0.00 | 0.04 | 0.00 | 28 | 1010.0 |
| 20260506152705 | 75 | 267 | 4.3 | 11.3 | 0.00 | 0.04 | 0.00 | 28 | 1009.7 |
| 20260506152206 | 75 | 330 | 5.2 | 11.3 | 0.00 | 0.04 | 0.00 | 27 | 1009.7 |
| 20260506151705 | 75 | 269 | 6.1 | 13.9 | 0.00 | 0.04 | 0.00 | 27 | 1009.7 |